sensor_id;sensor_type;location;lat;lon;timestamp;P1;durP1;ratioP1;P2;durP2;ratioP2
30299;SDS011;17110;52.602;12.998;2023-06-24T00:01:06;12.70;;;11.55;;
30299;SDS011;17110;52.602;12.998;2023-06-24T00:03:31;12.63;;;11.43;;
30299;SDS011;17110;52.602;12.998;2023-06-24T00:05:57;12.32;;;11.13;;
30299;SDS011;17110;52.602;12.998;2023-06-24T00:08:23;12.65;;;11.25;;
30299;SDS011;17110;52.602;12.998;2023-06-24T00:10:48;11.93;;;10.93;;
30299;SDS011;17110;52.602;12.998;2023-06-24T00:13:15;14.65;;;12.32;;
30299;SDS011;17110;52.602;12.998;2023-06-24T00:15:41;13.20;;;12.07;;
30299;SDS011;17110;52.602;12.998;2023-06-24T00:18:08;15.68;;;14.05;;
30299;SDS011;17110;52.602;12.998;2023-06-24T00:20:34;14.73;;;13.27;;
30299;SDS011;17110;52.602;12.998;2023-06-24T00:22:59;19.88;;;16.13;;
30299;SDS011;17110;52.602;12.998;2023-06-24T00:25:25;20.48;;;18.38;;
30299;SDS011;17110;52.602;12.998;2023-06-24T00:27:51;20.90;;;18.90;;
30299;SDS011;17110;52.602;12.998;2023-06-24T00:30:16;19.05;;;17.25;;
30299;SDS011;17110;52.602;12.998;2023-06-24T00:32:42;20.63;;;18.80;;
30299;SDS011;17110;52.602;12.998;2023-06-24T00:35:09;20.80;;;18.70;;
30299;SDS011;17110;52.602;12.998;2023-06-24T00:37:35;22.85;;;20.67;;
30299;SDS011;17110;52.602;12.998;2023-06-24T00:40:00;22.42;;;20.33;;
30299;SDS011;17110;52.602;12.998;2023-06-24T00:42:26;22.63;;;20.38;;
30299;SDS011;17110;52.602;12.998;2023-06-24T00:44:52;21.90;;;19.98;;
30299;SDS011;17110;52.602;12.998;2023-06-24T00:47:18;20.90;;;18.73;;
30299;SDS011;17110;52.602;12.998;2023-06-24T00:49:43;21.73;;;19.38;;
30299;SDS011;17110;52.602;12.998;2023-06-24T00:52:10;22.23;;;20.23;;
30299;SDS011;17110;52.602;12.998;2023-06-24T00:54:37;20.95;;;18.75;;
30299;SDS011;17110;52.602;12.998;2023-06-24T00:57:03;21.55;;;19.35;;
30299;SDS011;17110;52.602;12.998;2023-06-24T00:59:29;18.85;;;17.15;;
30299;SDS011;17110;52.602;12.998;2023-06-24T01:01:55;24.17;;;19.40;;
30299;SDS011;17110;52.602;12.998;2023-06-24T01:04:21;21.58;;;19.27;;
30299;SDS011;17110;52.602;12.998;2023-06-24T01:06:46;18.25;;;16.58;;
30299;SDS011;17110;52.602;12.998;2023-06-24T01:09:14;19.67;;;17.83;;
30299;SDS011;17110;52.602;12.998;2023-06-24T01:11:40;22.48;;;20.33;;
30299;SDS011;17110;52.602;12.998;2023-06-24T01:14:06;22.42;;;18.70;;
30299;SDS011;17110;52.602;12.998;2023-06-24T01:16:33;22.75;;;20.60;;
30299;SDS011;17110;52.602;12.998;2023-06-24T01:19:08;18.73;;;16.92;;
30299;SDS011;17110;52.602;12.998;2023-06-24T01:21:48;20.70;;;18.70;;
30299;SDS011;17110;52.602;12.998;2023-06-24T01:24:34;22.70;;;20.60;;
30299;SDS011;17110;52.602;12.998;2023-06-24T01:27:24;19.67;;;17.73;;
30299;SDS011;17110;52.602;12.998;2023-06-24T01:30:14;18.65;;;17.00;;
30299;SDS011;17110;52.602;12.998;2023-06-24T01:32:53;20.13;;;18.20;;
30299;SDS011;17110;52.602;12.998;2023-06-24T01:35:23;20.45;;;18.50;;
30299;SDS011;17110;52.602;12.998;2023-06-24T01:37:54;20.88;;;18.70;;
30299;SDS011;17110;52.602;12.998;2023-06-24T01:40:25;13.98;;;12.73;;
30299;SDS011;17110;52.602;12.998;2023-06-24T01:42:52;19.35;;;17.58;;
30299;SDS011;17110;52.602;12.998;2023-06-24T01:45:21;20.75;;;18.92;;
30299;SDS011;17110;52.602;12.998;2023-06-24T01:47:51;21.45;;;19.40;;
30299;SDS011;17110;52.602;12.998;2023-06-24T01:50:25;21.65;;;19.42;;
30299;SDS011;17110;52.602;12.998;2023-06-24T01:52:52;22.17;;;20.17;;
30299;SDS011;17110;52.602;12.998;2023-06-24T01:55:20;21.45;;;19.17;;
30299;SDS011;17110;52.602;12.998;2023-06-24T01:57:47;23.50;;;20.67;;
30299;SDS011;17110;52.602;12.998;2023-06-24T02:00:15;21.00;;;19.02;;
30299;SDS011;17110;52.602;12.998;2023-06-24T02:02:48;24.25;;;21.98;;
30299;SDS011;17110;52.602;12.998;2023-06-24T02:05:16;24.00;;;21.75;;
30299;SDS011;17110;52.602;12.998;2023-06-24T02:07:43;22.85;;;19.58;;
30299;SDS011;17110;52.602;12.998;2023-06-24T02:10:11;23.00;;;20.67;;
30299;SDS011;17110;52.602;12.998;2023-06-24T02:12:38;21.27;;;19.38;;
30299;SDS011;17110;52.602;12.998;2023-06-24T02:15:05;21.52;;;19.52;;
30299;SDS011;17110;52.602;12.998;2023-06-24T02:17:33;19.15;;;17.42;;
30299;SDS011;17110;52.602;12.998;2023-06-24T02:19:59;22.83;;;20.63;;
30299;SDS011;17110;52.602;12.998;2023-06-24T02:22:27;20.50;;;18.52;;
30299;SDS011;17110;52.602;12.998;2023-06-24T02:24:53;20.35;;;18.45;;
30299;SDS011;17110;52.602;12.998;2023-06-24T02:27:19;20.58;;;18.65;;
30299;SDS011;17110;52.602;12.998;2023-06-24T02:29:46;20.05;;;17.92;;
30299;SDS011;17110;52.602;12.998;2023-06-24T02:32:13;19.58;;;17.40;;
30299;SDS011;17110;52.602;12.998;2023-06-24T02:34:39;20.95;;;19.05;;
30299;SDS011;17110;52.602;12.998;2023-06-24T02:37:05;20.42;;;18.45;;
30299;SDS011;17110;52.602;12.998;2023-06-24T02:39:33;21.38;;;19.30;;
30299;SDS011;17110;52.602;12.998;2023-06-24T02:41:59;20.77;;;18.80;;
30299;SDS011;17110;52.602;12.998;2023-06-24T02:44:24;22.10;;;19.83;;
30299;SDS011;17110;52.602;12.998;2023-06-24T02:46:51;23.17;;;20.70;;
30299;SDS011;17110;52.602;12.998;2023-06-24T02:49:18;20.67;;;18.83;;
30299;SDS011;17110;52.602;12.998;2023-06-24T02:51:45;23.25;;;20.80;;
30299;SDS011;17110;52.602;12.998;2023-06-24T02:54:11;19.67;;;17.88;;
30299;SDS011;17110;52.602;12.998;2023-06-24T02:57:02;18.33;;;16.67;;
30299;SDS011;17110;52.602;12.998;2023-06-24T02:59:47;19.90;;;18.20;;
30299;SDS011;17110;52.602;12.998;2023-06-24T03:02:14;19.52;;;17.42;;
30299;SDS011;17110;52.602;12.998;2023-06-24T03:04:41;19.63;;;17.73;;
30299;SDS011;17110;52.602;12.998;2023-06-24T03:07:07;20.88;;;18.88;;
30299;SDS011;17110;52.602;12.998;2023-06-24T03:09:33;18.73;;;16.77;;
30299;SDS011;17110;52.602;12.998;2023-06-24T03:12:02;19.00;;;17.13;;
30299;SDS011;17110;52.602;12.998;2023-06-24T03:14:37;17.77;;;16.02;;
30299;SDS011;17110;52.602;12.998;2023-06-24T03:17:03;20.05;;;17.90;;
30299;SDS011;17110;52.602;12.998;2023-06-24T03:19:29;19.17;;;17.33;;
30299;SDS011;17110;52.602;12.998;2023-06-24T03:21:54;20.60;;;18.60;;
30299;SDS011;17110;52.602;12.998;2023-06-24T03:24:20;19.23;;;17.42;;
30299;SDS011;17110;52.602;12.998;2023-06-24T03:26:48;16.77;;;15.18;;
30299;SDS011;17110;52.602;12.998;2023-06-24T03:29:15;17.60;;;15.77;;
30299;SDS011;17110;52.602;12.998;2023-06-24T03:31:56;18.30;;;16.40;;
30299;SDS011;17110;52.602;12.998;2023-06-24T03:34:24;26.02;;;17.05;;
30299;SDS011;17110;52.602;12.998;2023-06-24T03:36:52;18.67;;;16.98;;
30299;SDS011;17110;52.602;12.998;2023-06-24T03:39:17;16.17;;;14.70;;
30299;SDS011;17110;52.602;12.998;2023-06-24T03:41:43;16.90;;;15.45;;
30299;SDS011;17110;52.602;12.998;2023-06-24T03:44:10;16.30;;;14.60;;
30299;SDS011;17110;52.602;12.998;2023-06-24T03:46:38;17.40;;;15.80;;
30299;SDS011;17110;52.602;12.998;2023-06-24T03:49:03;16.67;;;15.13;;
30299;SDS011;17110;52.602;12.998;2023-06-24T03:51:30;16.77;;;15.20;;
30299;SDS011;17110;52.602;12.998;2023-06-24T03:53:55;18.48;;;16.60;;
30299;SDS011;17110;52.602;12.998;2023-06-24T03:56:21;17.55;;;15.95;;
30299;SDS011;17110;52.602;12.998;2023-06-24T03:58:47;19.48;;;17.38;;
30299;SDS011;17110;52.602;12.998;2023-06-24T04:01:12;18.88;;;17.05;;
30299;SDS011;17110;52.602;12.998;2023-06-24T04:03:40;18.42;;;16.83;;
30299;SDS011;17110;52.602;12.998;2023-06-24T04:06:07;18.92;;;16.98;;
30299;SDS011;17110;52.602;12.998;2023-06-24T04:08:32;20.98;;;17.08;;
30299;SDS011;17110;52.602;12.998;2023-06-24T04:10:59;18.42;;;16.63;;
30299;SDS011;17110;52.602;12.998;2023-06-24T04:13:25;20.08;;;17.15;;
30299;SDS011;17110;52.602;12.998;2023-06-24T04:15:51;19.25;;;16.40;;
30299;SDS011;17110;52.602;12.998;2023-06-24T04:18:16;18.10;;;16.50;;
30299;SDS011;17110;52.602;12.998;2023-06-24T04:20:43;20.63;;;18.17;;
30299;SDS011;17110;52.602;12.998;2023-06-24T04:23:10;18.25;;;16.45;;
30299;SDS011;17110;52.602;12.998;2023-06-24T04:25:36;18.95;;;16.85;;
30299;SDS011;17110;52.602;12.998;2023-06-24T04:28:02;23.63;;;17.90;;
30299;SDS011;17110;52.602;12.998;2023-06-24T04:30:28;19.38;;;17.48;;
30299;SDS011;17110;52.602;12.998;2023-06-24T04:32:54;20.10;;;18.25;;
30299;SDS011;17110;52.602;12.998;2023-06-24T04:35:20;19.10;;;17.25;;
30299;SDS011;17110;52.602;12.998;2023-06-24T04:37:47;19.23;;;17.35;;
30299;SDS011;17110;52.602;12.998;2023-06-24T04:40:12;20.33;;;17.55;;
30299;SDS011;17110;52.602;12.998;2023-06-24T04:42:38;19.70;;;17.80;;
30299;SDS011;17110;52.602;12.998;2023-06-24T04:45:04;19.48;;;17.63;;
30299;SDS011;17110;52.602;12.998;2023-06-24T04:47:30;21.05;;;19.02;;
30299;SDS011;17110;52.602;12.998;2023-06-24T04:49:56;19.35;;;17.52;;
30299;SDS011;17110;52.602;12.998;2023-06-24T04:52:22;20.92;;;18.27;;
30299;SDS011;17110;52.602;12.998;2023-06-24T04:54:49;18.73;;;16.92;;
30299;SDS011;17110;52.602;12.998;2023-06-24T04:57:22;19.17;;;17.17;;
30299;SDS011;17110;52.602;12.998;2023-06-24T04:59:49;22.27;;;17.75;;
30299;SDS011;17110;52.602;12.998;2023-06-24T05:02:15;20.15;;;18.15;;
30299;SDS011;17110;52.602;12.998;2023-06-24T05:04:40;20.50;;;18.40;;
30299;SDS011;17110;52.602;12.998;2023-06-24T05:07:06;17.80;;;16.10;;
30299;SDS011;17110;52.602;12.998;2023-06-24T05:09:32;19.05;;;17.27;;
30299;SDS011;17110;52.602;12.998;2023-06-24T05:11:59;18.75;;;17.10;;
30299;SDS011;17110;52.602;12.998;2023-06-24T05:14:24;16.85;;;15.25;;
30299;SDS011;17110;52.602;12.998;2023-06-24T05:16:50;16.80;;;15.27;;
30299;SDS011;17110;52.602;12.998;2023-06-24T05:19:15;16.33;;;14.82;;
30299;SDS011;17110;52.602;12.998;2023-06-24T05:21:41;16.40;;;14.77;;
30299;SDS011;17110;52.602;12.998;2023-06-24T05:24:07;15.88;;;14.32;;
30299;SDS011;17110;52.602;12.998;2023-06-24T05:26:32;14.93;;;13.30;;
30299;SDS011;17110;52.602;12.998;2023-06-24T05:28:59;17.38;;;13.20;;
30299;SDS011;17110;52.602;12.998;2023-06-24T05:31:25;13.88;;;12.30;;
30299;SDS011;17110;52.602;12.998;2023-06-24T05:33:51;14.73;;;13.20;;
30299;SDS011;17110;52.602;12.998;2023-06-24T05:36:16;14.15;;;12.95;;
30299;SDS011;17110;52.602;12.998;2023-06-24T05:38:42;13.60;;;12.20;;
30299;SDS011;17110;52.602;12.998;2023-06-24T05:41:08;14.55;;;13.02;;
30299;SDS011;17110;52.602;12.998;2023-06-24T05:43:33;14.20;;;12.88;;
30299;SDS011;17110;52.602;12.998;2023-06-24T05:46:00;13.43;;;11.98;;
30299;SDS011;17110;52.602;12.998;2023-06-24T05:48:26;13.50;;;12.20;;
30299;SDS011;17110;52.602;12.998;2023-06-24T05:50:52;13.10;;;11.50;;
30299;SDS011;17110;52.602;12.998;2023-06-24T05:53:17;15.18;;;12.15;;
30299;SDS011;17110;52.602;12.998;2023-06-24T05:55:43;11.75;;;10.65;;
30299;SDS011;17110;52.602;12.998;2023-06-24T05:58:09;11.60;;;10.50;;
30299;SDS011;17110;52.602;12.998;2023-06-24T06:00:34;13.25;;;11.50;;
30299;SDS011;17110;52.602;12.998;2023-06-24T06:03:01;11.25;;;10.05;;
30299;SDS011;17110;52.602;12.998;2023-06-24T06:05:27;11.73;;;10.63;;
30299;SDS011;17110;52.602;12.998;2023-06-24T06:07:52;13.07;;;10.80;;
30299;SDS011;17110;52.602;12.998;2023-06-24T06:10:18;11.30;;;10.23;;
30299;SDS011;17110;52.602;12.998;2023-06-24T06:12:44;11.60;;;10.52;;
30299;SDS011;17110;52.602;12.998;2023-06-24T06:15:10;14.18;;;11.25;;
30299;SDS011;17110;52.602;12.998;2023-06-24T06:17:35;12.73;;;11.02;;
30299;SDS011;17110;52.602;12.998;2023-06-24T06:20:03;12.55;;;11.35;;
30299;SDS011;17110;52.602;12.998;2023-06-24T06:22:29;13.05;;;11.80;;
30299;SDS011;17110;52.602;12.998;2023-06-24T06:24:55;14.15;;;12.48;;
30299;SDS011;17110;52.602;12.998;2023-06-24T06:27:20;11.35;;;10.15;;
30299;SDS011;17110;52.602;12.998;2023-06-24T06:29:46;13.63;;;11.77;;
30299;SDS011;17110;52.602;12.998;2023-06-24T06:32:11;12.02;;;10.98;;
30299;SDS011;17110;52.602;12.998;2023-06-24T06:34:37;11.38;;;10.27;;
30299;SDS011;17110;52.602;12.998;2023-06-24T06:37:05;12.98;;;11.60;;
30299;SDS011;17110;52.602;12.998;2023-06-24T06:39:30;11.52;;;9.80;;
30299;SDS011;17110;52.602;12.998;2023-06-24T06:41:56;12.75;;;11.02;;
30299;SDS011;17110;52.602;12.998;2023-06-24T06:44:23;12.52;;;9.98;;
30299;SDS011;17110;52.602;12.998;2023-06-24T06:46:48;16.02;;;10.38;;
30299;SDS011;17110;52.602;12.998;2023-06-24T06:49:14;11.80;;;10.60;;
30299;SDS011;17110;52.602;12.998;2023-06-24T06:51:40;11.35;;;10.35;;
30299;SDS011;17110;52.602;12.998;2023-06-24T06:54:07;13.55;;;10.50;;
30299;SDS011;17110;52.602;12.998;2023-06-24T06:56:32;11.15;;;10.15;;
30299;SDS011;17110;52.602;12.998;2023-06-24T06:58:58;11.93;;;9.45;;
30299;SDS011;17110;52.602;12.998;2023-06-24T07:01:24;9.88;;;8.85;;
30299;SDS011;17110;52.602;12.998;2023-06-24T07:03:50;10.55;;;9.45;;
30299;SDS011;17110;52.602;12.998;2023-06-24T07:06:17;9.90;;;8.90;;
30299;SDS011;17110;52.602;12.998;2023-06-24T07:08:43;11.52;;;9.55;;
30299;SDS011;17110;52.602;12.998;2023-06-24T07:11:10;12.45;;;10.02;;
30299;SDS011;17110;52.602;12.998;2023-06-24T07:13:35;10.77;;;9.00;;
30299;SDS011;17110;52.602;12.998;2023-06-24T07:16:01;8.40;;;7.68;;
30299;SDS011;17110;52.602;12.998;2023-06-24T07:18:27;10.00;;;8.35;;
30299;SDS011;17110;52.602;12.998;2023-06-24T07:20:53;11.95;;;8.63;;
30299;SDS011;17110;52.602;12.998;2023-06-24T07:23:18;9.23;;;8.43;;
30299;SDS011;17110;52.602;12.998;2023-06-24T07:25:44;10.65;;;8.70;;
30299;SDS011;17110;52.602;12.998;2023-06-24T07:28:11;9.73;;;8.77;;
30299;SDS011;17110;52.602;12.998;2023-06-24T07:30:37;10.95;;;9.85;;
30299;SDS011;17110;52.602;12.998;2023-06-24T07:33:02;10.60;;;9.27;;
30299;SDS011;17110;52.602;12.998;2023-06-24T07:35:28;10.60;;;9.60;;
30299;SDS011;17110;52.602;12.998;2023-06-24T07:37:54;12.50;;;10.30;;
30299;SDS011;17110;52.602;12.998;2023-06-24T07:40:19;10.13;;;9.00;;
30299;SDS011;17110;52.602;12.998;2023-06-24T07:42:45;12.30;;;9.50;;
30299;SDS011;17110;52.602;12.998;2023-06-24T07:45:12;10.73;;;9.63;;
30299;SDS011;17110;52.602;12.998;2023-06-24T07:47:37;9.40;;;8.23;;
30299;SDS011;17110;52.602;12.998;2023-06-24T07:50:03;8.00;;;7.20;;
30299;SDS011;17110;52.602;12.998;2023-06-24T07:52:29;8.52;;;7.53;;
30299;SDS011;17110;52.602;12.998;2023-06-24T07:54:55;9.13;;;7.35;;
30299;SDS011;17110;52.602;12.998;2023-06-24T07:57:21;7.95;;;7.13;;
30299;SDS011;17110;52.602;12.998;2023-06-24T07:59:46;7.05;;;5.97;;
30299;SDS011;17110;52.602;12.998;2023-06-24T08:02:13;8.13;;;6.93;;
30299;SDS011;17110;52.602;12.998;2023-06-24T08:04:39;6.97;;;6.22;;
30299;SDS011;17110;52.602;12.998;2023-06-24T08:07:05;7.78;;;5.82;;
30299;SDS011;17110;52.602;12.998;2023-06-24T08:09:30;8.15;;;6.25;;
30299;SDS011;17110;52.602;12.998;2023-06-24T08:11:56;7.53;;;6.70;;
30299;SDS011;17110;52.602;12.998;2023-06-24T08:14:22;8.02;;;6.13;;
30299;SDS011;17110;52.602;12.998;2023-06-24T08:16:47;6.55;;;5.95;;
30299;SDS011;17110;52.602;12.998;2023-06-24T08:19:14;5.82;;;5.32;;
30299;SDS011;17110;52.602;12.998;2023-06-24T08:21:40;9.70;;;6.05;;
30299;SDS011;17110;52.602;12.998;2023-06-24T08:24:06;7.00;;;6.30;;
30299;SDS011;17110;52.602;12.998;2023-06-24T08:26:32;10.38;;;6.15;;
30299;SDS011;17110;52.602;12.998;2023-06-24T08:28:57;4.95;;;4.07;;
30299;SDS011;17110;52.602;12.998;2023-06-24T08:31:23;4.80;;;4.40;;
30299;SDS011;17110;52.602;12.998;2023-06-24T08:33:49;4.72;;;4.32;;
30299;SDS011;17110;52.602;12.998;2023-06-24T08:36:18;6.38;;;5.63;;
30299;SDS011;17110;52.602;12.998;2023-06-24T08:38:44;6.40;;;4.82;;
30299;SDS011;17110;52.602;12.998;2023-06-24T08:41:09;5.97;;;5.43;;
30299;SDS011;17110;52.602;12.998;2023-06-24T08:43:35;6.22;;;5.40;;
30299;SDS011;17110;52.602;12.998;2023-06-24T08:46:01;7.28;;;6.57;;
30299;SDS011;17110;52.602;12.998;2023-06-24T08:48:26;6.82;;;5.50;;
30299;SDS011;17110;52.602;12.998;2023-06-24T08:50:55;9.95;;;6.40;;
30299;SDS011;17110;52.602;12.998;2023-06-24T08:53:24;8.70;;;6.28;;
30299;SDS011;17110;52.602;12.998;2023-06-24T08:55:52;8.07;;;5.13;;
30299;SDS011;17110;52.602;12.998;2023-06-24T08:58:19;5.40;;;4.95;;
30299;SDS011;17110;52.602;12.998;2023-06-24T09:00:44;5.75;;;4.82;;
30299;SDS011;17110;52.602;12.998;2023-06-24T09:03:11;7.13;;;5.15;;
30299;SDS011;17110;52.602;12.998;2023-06-24T09:05:36;6.85;;;5.55;;
30299;SDS011;17110;52.602;12.998;2023-06-24T09:08:02;5.72;;;5.20;;
30299;SDS011;17110;52.602;12.998;2023-06-24T09:10:32;5.00;;;4.60;;
30299;SDS011;17110;52.602;12.998;2023-06-24T09:12:59;6.57;;;4.97;;
30299;SDS011;17110;52.602;12.998;2023-06-24T09:15:26;5.90;;;4.70;;
30299;SDS011;17110;52.602;12.998;2023-06-24T09:17:55;4.88;;;4.43;;
30299;SDS011;17110;52.602;12.998;2023-06-24T09:20:20;7.55;;;5.15;;
30299;SDS011;17110;52.602;12.998;2023-06-24T09:22:46;6.68;;;5.63;;
30299;SDS011;17110;52.602;12.998;2023-06-24T09:25:15;6.90;;;5.40;;
30299;SDS011;17110;52.602;12.998;2023-06-24T09:27:45;7.13;;;5.80;;
30299;SDS011;17110;52.602;12.998;2023-06-24T09:30:19;6.10;;;5.50;;
30299;SDS011;17110;52.602;12.998;2023-06-24T09:32:46;8.55;;;6.18;;
30299;SDS011;17110;52.602;12.998;2023-06-24T09:35:12;6.35;;;5.75;;
30299;SDS011;17110;52.602;12.998;2023-06-24T09:37:38;10.77;;;5.20;;
30299;SDS011;17110;52.602;12.998;2023-06-24T09:40:04;9.23;;;5.20;;
30299;SDS011;17110;52.602;12.998;2023-06-24T09:42:30;6.65;;;4.97;;
30299;SDS011;17110;52.602;12.998;2023-06-24T09:44:58;9.57;;;5.57;;
30299;SDS011;17110;52.602;12.998;2023-06-24T09:47:23;4.95;;;4.45;;
30299;SDS011;17110;52.602;12.998;2023-06-24T09:49:49;7.53;;;4.80;;
30299;SDS011;17110;52.602;12.998;2023-06-24T09:52:15;5.43;;;4.85;;
30299;SDS011;17110;52.602;12.998;2023-06-24T09:54:41;6.43;;;5.28;;
30299;SDS011;17110;52.602;12.998;2023-06-24T09:57:09;9.32;;;5.40;;
30299;SDS011;17110;52.602;12.998;2023-06-24T09:59:35;6.32;;;5.32;;
30299;SDS011;17110;52.602;12.998;2023-06-24T10:02:03;6.28;;;5.20;;
30299;SDS011;17110;52.602;12.998;2023-06-24T10:04:34;6.65;;;4.65;;
30299;SDS011;17110;52.602;12.998;2023-06-24T10:07:00;5.45;;;5.00;;
30299;SDS011;17110;52.602;12.998;2023-06-24T10:09:26;5.97;;;4.43;;
30299;SDS011;17110;52.602;12.998;2023-06-24T10:11:51;6.85;;;5.32;;
30299;SDS011;17110;52.602;12.998;2023-06-24T10:14:17;6.22;;;4.60;;
30299;SDS011;17110;52.602;12.998;2023-06-24T10:16:43;10.63;;;5.03;;
30299;SDS011;17110;52.602;12.998;2023-06-24T10:19:13;8.35;;;5.70;;
30299;SDS011;17110;52.602;12.998;2023-06-24T10:21:45;4.85;;;4.43;;
30299;SDS011;17110;52.602;12.998;2023-06-24T10:24:11;4.63;;;4.13;;
30299;SDS011;17110;52.602;12.998;2023-06-24T10:26:36;4.90;;;4.38;;
30299;SDS011;17110;52.602;12.998;2023-06-24T10:29:11;5.25;;;4.45;;
30299;SDS011;17110;52.602;12.998;2023-06-24T10:31:52;4.50;;;4.10;;
30299;SDS011;17110;52.602;12.998;2023-06-24T10:34:28;5.72;;;4.40;;
30299;SDS011;17110;52.602;12.998;2023-06-24T10:36:58;5.50;;;4.63;;
30299;SDS011;17110;52.602;12.998;2023-06-24T10:42:24;4.95;;;4.45;;
30299;SDS011;17110;52.602;12.998;2023-06-24T10:47:24;6.75;;;4.05;;
30299;SDS011;17110;52.602;12.998;2023-06-24T10:49:52;6.82;;;4.30;;
30299;SDS011;17110;52.602;12.998;2023-06-24T10:52:18;7.38;;;4.85;;
30299;SDS011;17110;52.602;12.998;2023-06-24T10:54:44;4.18;;;3.85;;
30299;SDS011;17110;52.602;12.998;2023-06-24T10:57:10;9.07;;;4.55;;
30299;SDS011;17110;52.602;12.998;2023-06-24T10:59:39;7.20;;;4.22;;
30299;SDS011;17110;52.602;12.998;2023-06-24T11:02:05;4.90;;;4.30;;
30299;SDS011;17110;52.602;12.998;2023-06-24T11:04:32;6.65;;;4.65;;
30299;SDS011;17110;52.602;12.998;2023-06-24T11:06:59;5.90;;;4.32;;
30299;SDS011;17110;52.602;12.998;2023-06-24T11:09:26;7.60;;;4.47;;
30299;SDS011;17110;52.602;12.998;2023-06-24T11:11:52;8.48;;;4.57;;
30299;SDS011;17110;52.602;12.998;2023-06-24T11:14:17;5.70;;;4.57;;
30299;SDS011;17110;52.602;12.998;2023-06-24T11:16:45;6.32;;;4.88;;
30299;SDS011;17110;52.602;12.998;2023-06-24T11:19:10;6.47;;;4.95;;
30299;SDS011;17110;52.602;12.998;2023-06-24T11:21:36;7.20;;;5.15;;
30299;SDS011;17110;52.602;12.998;2023-06-24T11:24:03;5.72;;;5.10;;
30299;SDS011;17110;52.602;12.998;2023-06-24T11:26:30;6.13;;;4.60;;
30299;SDS011;17110;52.602;12.998;2023-06-24T11:28:56;7.80;;;5.15;;
30299;SDS011;17110;52.602;12.998;2023-06-24T11:31:24;6.60;;;4.55;;
30299;SDS011;17110;52.602;12.998;2023-06-24T11:33:50;5.45;;;4.10;;
30299;SDS011;17110;52.602;12.998;2023-06-24T11:36:17;5.32;;;4.82;;
30299;SDS011;17110;52.602;12.998;2023-06-24T11:38:43;4.65;;;4.25;;
30299;SDS011;17110;52.602;12.998;2023-06-24T11:41:11;6.57;;;4.85;;
30299;SDS011;17110;52.602;12.998;2023-06-24T11:43:37;6.55;;;4.75;;
30299;SDS011;17110;52.602;12.998;2023-06-24T11:46:08;5.22;;;4.50;;
30299;SDS011;17110;52.602;12.998;2023-06-24T11:48:38;6.72;;;4.93;;
30299;SDS011;17110;52.602;12.998;2023-06-24T11:51:04;6.45;;;4.38;;
30299;SDS011;17110;52.602;12.998;2023-06-24T11:53:40;6.32;;;4.60;;
30299;SDS011;17110;52.602;12.998;2023-06-24T11:56:06;5.80;;;4.80;;
30299;SDS011;17110;52.602;12.998;2023-06-24T11:58:35;8.13;;;4.65;;
30299;SDS011;17110;52.602;12.998;2023-06-24T12:01:01;7.72;;;4.28;;
30299;SDS011;17110;52.602;12.998;2023-06-24T12:03:27;7.18;;;5.28;;
30299;SDS011;17110;52.602;12.998;2023-06-24T12:05:54;6.43;;;4.50;;
30299;SDS011;17110;52.602;12.998;2023-06-24T12:08:19;5.30;;;4.70;;
30299;SDS011;17110;52.602;12.998;2023-06-24T12:10:45;6.90;;;4.65;;
30299;SDS011;17110;52.602;12.998;2023-06-24T12:13:11;5.70;;;5.10;;
30299;SDS011;17110;52.602;12.998;2023-06-24T12:15:38;8.52;;;4.75;;
30299;SDS011;17110;52.602;12.998;2023-06-24T12:18:04;6.43;;;4.90;;
30299;SDS011;17110;52.602;12.998;2023-06-24T12:20:29;5.88;;;5.03;;
30299;SDS011;17110;52.602;12.998;2023-06-24T12:22:55;7.68;;;4.65;;
30299;SDS011;17110;52.602;12.998;2023-06-24T12:25:21;5.63;;;4.40;;
30299;SDS011;17110;52.602;12.998;2023-06-24T12:27:46;5.22;;;4.72;;
30299;SDS011;17110;52.602;12.998;2023-06-24T12:30:12;7.57;;;4.80;;
30299;SDS011;17110;52.602;12.998;2023-06-24T12:32:39;5.40;;;4.55;;
30299;SDS011;17110;52.602;12.998;2023-06-24T12:35:05;5.32;;;4.63;;
30299;SDS011;17110;52.602;12.998;2023-06-24T12:37:32;6.03;;;4.75;;
30299;SDS011;17110;52.602;12.998;2023-06-24T12:39:58;7.60;;;4.93;;
30299;SDS011;17110;52.602;12.998;2023-06-24T12:42:24;9.75;;;4.72;;
30299;SDS011;17110;52.602;12.998;2023-06-24T12:44:50;6.80;;;3.90;;
30299;SDS011;17110;52.602;12.998;2023-06-24T12:47:15;4.47;;;4.07;;
30299;SDS011;17110;52.602;12.998;2023-06-24T12:49:42;4.30;;;3.90;;
30299;SDS011;17110;52.602;12.998;2023-06-24T12:52:08;4.88;;;3.80;;
30299;SDS011;17110;52.602;12.998;2023-06-24T12:54:34;5.05;;;4.60;;
30299;SDS011;17110;52.602;12.998;2023-06-24T12:56:59;4.75;;;4.10;;
30299;SDS011;17110;52.602;12.998;2023-06-24T12:59:25;8.05;;;4.70;;
30299;SDS011;17110;52.602;12.998;2023-06-24T13:01:51;4.75;;;4.35;;
30299;SDS011;17110;52.602;12.998;2023-06-24T13:04:17;5.97;;;4.82;;
30299;SDS011;17110;52.602;12.998;2023-06-24T13:06:44;5.80;;;4.60;;
30299;SDS011;17110;52.602;12.998;2023-06-24T13:09:09;6.65;;;4.38;;
30299;SDS011;17110;52.602;12.998;2023-06-24T13:11:35;6.90;;;4.28;;
30299;SDS011;17110;52.602;12.998;2023-06-24T13:14:01;5.18;;;4.35;;
30299;SDS011;17110;52.602;12.998;2023-06-24T13:16:26;6.55;;;4.55;;
30299;SDS011;17110;52.602;12.998;2023-06-24T13:18:52;4.93;;;4.40;;
30299;SDS011;17110;52.602;12.998;2023-06-24T13:21:18;7.47;;;4.60;;
30299;SDS011;17110;52.602;12.998;2023-06-24T13:23:45;5.30;;;4.50;;
30299;SDS011;17110;52.602;12.998;2023-06-24T13:26:10;5.07;;;4.32;;
30299;SDS011;17110;52.602;12.998;2023-06-24T13:28:36;5.18;;;4.68;;
30299;SDS011;17110;52.602;12.998;2023-06-24T13:31:01;6.65;;;4.75;;
30299;SDS011;17110;52.602;12.998;2023-06-24T13:33:27;6.22;;;5.20;;
30299;SDS011;17110;52.602;12.998;2023-06-24T13:35:53;6.10;;;4.65;;
30299;SDS011;17110;52.602;12.998;2023-06-24T13:38:20;5.55;;;4.80;;
30299;SDS011;17110;52.602;12.998;2023-06-24T13:40:47;6.05;;;4.65;;
30299;SDS011;17110;52.602;12.998;2023-06-24T13:43:12;5.68;;;4.55;;
30299;SDS011;17110;52.602;12.998;2023-06-24T13:45:38;5.82;;;4.50;;
30299;SDS011;17110;52.602;12.998;2023-06-24T13:48:04;5.65;;;5.00;;
30299;SDS011;17110;52.602;12.998;2023-06-24T13:50:30;4.93;;;4.43;;
30299;SDS011;17110;52.602;12.998;2023-06-24T13:52:55;6.40;;;5.50;;
30299;SDS011;17110;52.602;12.998;2023-06-24T13:55:21;4.93;;;4.47;;
30299;SDS011;17110;52.602;12.998;2023-06-24T13:57:48;7.68;;;4.65;;
30299;SDS011;17110;52.602;12.998;2023-06-24T14:00:14;5.63;;;4.70;;
30299;SDS011;17110;52.602;12.998;2023-06-24T14:02:40;5.18;;;4.68;;
30299;SDS011;17110;52.602;12.998;2023-06-24T14:05:06;7.80;;;5.30;;
30299;SDS011;17110;52.602;12.998;2023-06-24T14:07:32;7.88;;;4.47;;
30299;SDS011;17110;52.602;12.998;2023-06-24T14:09:58;5.03;;;4.40;;
30299;SDS011;17110;52.602;12.998;2023-06-24T14:12:24;6.97;;;5.13;;
30299;SDS011;17110;52.602;12.998;2023-06-24T14:14:51;5.75;;;4.93;;
30299;SDS011;17110;52.602;12.998;2023-06-24T14:17:17;5.65;;;5.05;;
30299;SDS011;17110;52.602;12.998;2023-06-24T14:19:43;4.95;;;4.55;;
30299;SDS011;17110;52.602;12.998;2023-06-24T14:22:08;6.28;;;4.57;;
30299;SDS011;17110;52.602;12.998;2023-06-24T14:24:34;6.35;;;4.07;;